Time;durP1;ratioP1;P1;durP2;ratioP2;P2;SDS_P1;SDS_P2;PMS_P1;PMS_P2;Temp;Humidity;BMP_temperature;BMP_pressure;BME280_temperature;BME280_humidity;BME280_pressure;Samples;Min_cycle;Max_cycle;Signal;HPM_P1;HPM_P2
2022/11/24 00:00:16;;;;;;;9.63;2.80;;;9.40;99.90;;;;;;5054909;28;20470;-80
2022/11/24 00:02:43;;;;;;;13.07;3.60;;;9.30;99.90;;;;;;5054903;28;20528;-79
2022/11/24 00:05:10;;;;;;;9.17;3.20;;;9.30;99.90;;;;;;5055113;28;20473;-79
2022/11/24 00:07:37;;;;;;;12.90;3.33;;;9.30;99.90;;;;;;5054522;28;20452;-79
2022/11/24 00:10:04;;;;;;;8.80;2.70;;;9.30;99.90;;;;;;5053738;28;20869;-80
2022/11/24 00:12:31;;;;;;;11.40;3.17;;;9.20;99.90;;;;;;5056354;28;20455;-81
2022/11/24 00:14:58;;;;;;;14.13;2.40;;;9.20;99.90;;;;;;5059704;28;20445;-80
2022/11/24 00:17:28;;;;;;;15.20;3.17;;;9.10;99.90;;;;;;5076614;28;20516;-80
2022/11/24 00:19:55;;;;;;;11.93;2.90;;;9.10;99.90;;;;;;5056960;28;20465;-79
2022/11/24 00:22:21;;;;;;;14.00;3.87;;;9.10;99.90;;;;;;5059230;28;20450;-78
2022/11/24 00:24:48;;;;;;;13.93;2.50;;;9.10;99.90;;;;;;5059247;28;20459;-79
2022/11/24 00:27:15;;;;;;;9.57;2.40;;;9.00;99.90;;;;;;5058131;28;20454;-79
2022/11/24 00:32:12;;;;;;;10.63;2.60;;;8.90;99.90;;;;;;5095490;28;20463;-85
2022/11/24 00:34:40;;;;;;;11.27;3.37;;;8.90;99.90;;;;;;5105982;28;20523;-84
2022/11/24 00:37:07;;;;;;;10.50;2.60;;;8.80;99.90;;;;;;5100071;28;20447;-84
2022/11/24 00:39:34;;;;;;;14.83;2.80;;;8.90;99.90;;;;;;5095157;28;20493;-83
2022/11/24 00:42:01;;;;;;;10.40;2.80;;;8.80;99.90;;;;;;5095840;28;20460;-85
2022/11/24 00:44:28;;;;;;;7.20;2.20;;;8.80;99.90;;;;;;5084736;28;20530;-84
2022/11/24 00:46:54;;;;;;;13.30;3.20;;;8.80;99.90;;;;;;5094712;28;20514;-85
2022/11/24 00:49:21;;;;;;;9.13;3.37;;;8.70;99.90;;;;;;5097347;28;20487;-84
2022/11/24 00:51:49;;;;;;;9.87;2.60;;;8.70;99.90;;;;;;5097775;28;21009;-84
2022/11/24 00:54:17;;;;;;;10.30;2.50;;;8.70;99.90;;;;;;5091759;28;20463;-84
2022/11/24 00:56:43;;;;;;;10.53;2.60;;;8.70;99.90;;;;;;5103629;28;20451;-85
2022/11/24 00:59:10;;;;;;;11.47;3.20;;;8.70;99.90;;;;;;5104011;28;20456;-83
2022/11/24 01:01:37;;;;;;;8.80;2.53;;;8.70;99.90;;;;;;5102695;28;21294;-84
2022/11/24 01:04:04;;;;;;;9.10;3.23;;;8.60;99.90;;;;;;5085218;28;20452;-85
2022/11/24 01:06:34;;;;;;;15.83;3.23;;;8.50;99.90;;;;;;5083445;28;20475;-85
2022/11/24 01:09:03;;;;;;;10.60;3.17;;;8.50;99.90;;;;;;5101827;28;20456;-84
2022/11/24 01:12:00;;;;;;;10.73;3.37;;;8.50;99.90;;;;;;5091612;28;20468;-85
2022/11/24 01:14:20;;;;;;;14.83;4.07;;;8.50;99.90;;;;;;5084503;28;20892;-85
2022/11/24 01:16:46;;;;;;;11.33;4.93;;;8.50;99.90;;;;;;5085497;28;20529;-83
2022/11/24 01:19:13;;;;;;;8.27;3.03;;;8.50;99.90;;;;;;5084038;28;20530;-85
2022/11/24 01:21:40;;;;;;;9.17;3.10;;;8.40;99.90;;;;;;5085194;28;20475;-84
2022/11/24 01:24:09;;;;;;;14.50;4.00;;;8.40;99.90;;;;;;5105014;28;20515;-85
2022/11/24 01:26:36;;;;;;;8.00;2.17;;;8.50;99.90;;;;;;5104621;28;20525;-86
2022/11/24 01:29:04;;;;;;;14.60;3.10;;;8.50;99.90;;;;;;5103304;28;20829;-85
2022/11/24 01:31:32;;;;;;;8.40;2.60;;;8.50;99.90;;;;;;5101665;28;21005;-85
2022/11/24 01:33:59;;;;;;;12.57;2.93;;;8.50;99.90;;;;;;5084178;28;20543;-85
2022/11/24 01:36:25;;;;;;;8.77;2.80;;;8.50;99.90;;;;;;5084090;28;20879;-85
2022/11/24 01:38:52;;;;;;;8.90;3.47;;;8.50;99.90;;;;;;5096277;28;20528;-85
2022/11/24 01:41:23;;;;;;;8.13;2.83;;;8.60;99.90;;;;;;5102324;28;20490;-85
2022/11/24 01:43:51;;;;;;;8.80;3.90;;;8.50;99.90;;;;;;5084790;28;21029;-85
2022/11/24 01:46:23;;;;;;;8.87;2.70;;;8.60;99.90;;;;;;5084833;28;20446;-85
2022/11/24 01:48:55;;;;;;;7.53;2.23;;;8.60;99.90;;;;;;5094659;28;20446;-85
2022/11/24 01:51:25;;;;;;;11.60;2.20;;;8.60;99.90;;;;;;5102682;28;20538;-84
2022/11/24 01:53:55;;;;;;;12.80;2.37;;;8.60;99.90;;;;;;5083484;28;20452;-85
2022/11/24 01:56:24;;;;;;;7.20;2.30;;;8.60;99.90;;;;;;5093189;28;20463;-84
2022/11/24 01:58:53;;;;;;;8.10;2.43;;;8.60;99.90;;;;;;5092557;28;20447;-85
2022/11/24 02:01:20;;;;;;;9.00;3.00;;;8.60;99.90;;;;;;5094987;28;20548;-85
2022/11/24 02:03:49;;;;;;;10.83;2.70;;;8.60;99.90;;;;;;5081956;28;20538;-84
2022/11/24 02:06:19;;;;;;;7.30;2.83;;;8.60;99.90;;;;;;5091374;28;20447;-85
2022/11/24 02:08:51;;;;;;;12.77;3.80;;;8.70;99.90;;;;;;5097403;28;20962;-85
2022/11/24 02:11:20;;;;;;;11.50;4.87;;;8.80;99.90;;;;;;5065036;28;21277;-86
2022/11/24 02:13:51;;;;;;;20.70;3.10;;;8.90;99.90;;;;;;5084407;28;20483;-85
2022/11/24 02:16:18;;;;;;;9.70;3.00;;;8.90;99.90;;;;;;5092929;28;20524;-86
2022/11/24 02:18:45;;;;;;;14.10;3.20;;;9.00;99.90;;;;;;5099411;28;20473;-85
2022/11/24 02:21:13;;;;;;;8.43;3.50;;;9.10;99.90;;;;;;5098920;28;20559;-85
2022/11/24 02:23:48;;;;;;;10.97;3.37;;;9.10;99.90;;;;;;5090803;28;20455;-85
2022/11/24 02:26:25;;;;;;;16.50;3.00;;;9.10;99.90;;;;;;5101801;28;20513;-86
2022/11/24 02:28:53;;;;;;;9.40;2.40;;;9.10;99.90;;;;;;5083557;28;20446;-85
2022/11/24 02:31:19;;;;;;;10.40;2.60;;;9.10;99.90;;;;;;5084173;28;20595;-86
2022/11/24 02:33:48;;;;;;;16.33;2.50;;;9.10;99.90;;;;;;5101933;28;20456;-85
2022/11/24 02:36:15;;;;;;;9.83;3.30;;;9.00;99.90;;;;;;5087175;28;20457;-85
2022/11/24 02:38:41;;;;;;;14.63;3.43;;;8.90;99.90;;;;;;5100136;28;20452;-87
2022/11/24 02:41:12;;;;;;;13.17;3.70;;;8.80;99.90;;;;;;5100302;28;20535;-85
2022/11/24 02:43:44;;;;;;;9.93;2.50;;;8.80;99.90;;;;;;5096044;28;20953;-85
2022/11/24 02:46:10;;;;;;;13.83;3.13;;;8.90;99.90;;;;;;5098260;28;20543;-85
2022/11/24 02:48:37;;;;;;;9.97;2.30;;;8.80;99.90;;;;;;5102640;28;20542;-85
2022/11/24 02:51:05;;;;;;;11.13;3.13;;;8.80;99.90;;;;;;5088313;28;20575;-86
2022/11/24 02:53:31;;;;;;;12.17;2.70;;;8.80;99.90;;;;;;5082469;28;20453;-87
2022/11/24 02:55:58;;;;;;;11.80;2.43;;;8.80;99.90;;;;;;5083147;28;20528;-85
2022/11/24 02:58:25;;;;;;;8.60;3.00;;;8.80;99.90;;;;;;5083405;28;20512;-85
2022/11/24 03:00:54;;;;;;;16.97;2.80;;;8.90;99.90;;;;;;5081238;28;20536;-87
2022/11/24 03:03:20;;;;;;;11.40;2.67;;;8.90;99.90;;;;;;5083376;28;20451;-85
2022/11/24 03:05:47;;;;;;;8.23;2.33;;;8.80;99.90;;;;;;5085529;28;20451;-86
2022/11/24 03:08:14;;;;;;;12.67;2.77;;;8.80;99.90;;;;;;5082531;28;20543;-85
2022/11/24 03:10:41;;;;;;;12.17;3.50;;;8.70;99.90;;;;;;5095747;28;20863;-84
2022/11/24 03:13:08;;;;;;;13.90;3.53;;;8.80;99.90;;;;;;5103882;28;20546;-85
2022/11/24 03:15:35;;;;;;;12.10;2.57;;;8.70;99.90;;;;;;5103315;28;20568;-85
2022/11/24 03:18:03;;;;;;;12.13;2.90;;;8.70;99.90;;;;;;5103200;28;20523;-84
2022/11/24 03:20:30;;;;;;;12.03;2.60;;;8.70;99.90;;;;;;5092595;28;20476;-86
2022/11/24 03:22:57;;;;;;;10.67;2.70;;;8.70;99.90;;;;;;5091841;28;20477;-86
2022/11/24 03:25:24;;;;;;;7.60;2.60;;;8.70;99.90;;;;;;5085802;28;20458;-86
2022/11/24 03:27:51;;;;;;;12.07;3.03;;;8.80;99.90;;;;;;5090223;28;21059;-85
2022/11/24 03:30:18;;;;;;;9.53;3.43;;;8.90;99.90;;;;;;5094382;28;20515;-85
2022/11/24 03:32:45;;;;;;;14.27;2.67;;;9.00;99.90;;;;;;5082113;28;20446;-85
2022/11/24 03:35:13;;;;;;;13.80;3.50;;;9.00;99.90;;;;;;5100921;28;20448;-85
2022/11/24 03:37:40;;;;;;;11.43;2.47;;;9.00;99.90;;;;;;5101588;28;20540;-86
2022/11/24 03:40:07;;;;;;;9.97;3.57;;;9.10;99.90;;;;;;5099001;28;20482;-86
2022/11/24 03:42:34;;;;;;;14.07;2.50;;;9.10;99.90;;;;;;5083862;28;20543;-85
2022/11/24 03:45:01;;;;;;;7.83;2.30;;;9.10;99.90;;;;;;5094741;28;20484;-86
2022/11/24 03:47:28;;;;;;;9.80;2.90;;;9.10;99.90;;;;;;5082396;28;20449;-85
2022/11/24 03:49:54;;;;;;;15.27;3.17;;;9.10;99.90;;;;;;5084924;28;20450;-85
2022/11/24 03:52:25;;;;;;;15.13;3.43;;;9.10;99.90;;;;;;5101710;28;20487;-85
2022/11/24 03:54:52;;;;;;;12.97;3.17;;;9.00;99.90;;;;;;5091530;28;20597;-86
2022/11/24 03:57:18;;;;;;;11.40;2.70;;;9.00;99.90;;;;;;5090177;28;20452;-86
2022/11/24 03:59:46;;;;;;;14.17;2.53;;;9.00;99.90;;;;;;5101575;28;20449;-85
2022/11/24 04:02:12;;;;;;;13.00;2.27;;;8.90;99.90;;;;;;5077771;28;20448;-86
2022/11/24 04:04:39;;;;;;;6.87;2.10;;;8.80;99.90;;;;;;5087529;28;20539;-87
2022/11/24 04:07:06;;;;;;;5.20;2.50;;;8.80;99.90;;;;;;5106602;28;20452;-85
2022/11/24 04:09:34;;;;;;;9.63;2.90;;;8.80;99.90;;;;;;5091230;28;20979;-84
2022/11/24 04:14:45;;;;;;;14.13;2.90;;;8.80;99.90;;;;;;5093821;28;20478;-84
2022/11/24 04:17:12;;;;;;;13.20;3.83;;;8.70;99.90;;;;;;5111703;28;20434;-81
2022/11/24 04:19:39;;;;;;;12.30;2.43;;;8.70;99.90;;;;;;5114513;28;20467;-82
2022/11/24 04:22:06;;;;;;;13.40;2.97;;;8.80;99.90;;;;;;5099267;28;20471;-82
2022/11/24 04:24:34;;;;;;;11.93;3.33;;;8.80;99.90;;;;;;5096723;28;20465;-85
2022/11/24 04:27:01;;;;;;;19.13;3.03;;;9.00;99.90;;;;;;5097141;28;20504;-83
2022/11/24 04:29:27;;;;;;;11.03;3.17;;;9.10;99.90;;;;;;5103410;28;20504;-86
2022/11/24 04:31:54;;;;;;;18.73;3.27;;;9.20;99.90;;;;;;5094458;28;20551;-85
2022/11/24 04:34:21;;;;;;;15.60;4.10;;;9.20;99.90;;;;;;5089648;28;20459;-85
2022/11/24 04:36:48;;;;;;;14.03;2.47;;;9.30;99.90;;;;;;5088825;28;20536;-86
2022/11/24 04:39:14;;;;;;;16.10;4.43;;;9.30;99.90;;;;;;5097347;28;20494;-85
2022/11/24 04:41:43;;;;;;;13.23;3.17;;;9.30;99.90;;;;;;5078870;28;20557;-84
2022/11/24 04:44:09;;;;;;;10.73;3.70;;;9.30;99.90;;;;;;5082300;28;20489;-85
2022/11/24 04:46:36;;;;;;;13.17;3.00;;;9.30;99.90;;;;;;5090535;28;20522;-84
2022/11/24 04:49:04;;;;;;;9.80;3.10;;;9.30;99.90;;;;;;5092491;28;20522;-85
2022/11/24 04:51:31;;;;;;;17.70;3.17;;;9.30;99.90;;;;;;5086572;28;20547;-85
2022/11/24 04:53:57;;;;;;;10.93;3.53;;;9.20;99.90;;;;;;5090990;28;20544;-85
2022/11/24 04:56:24;;;;;;;16.50;3.70;;;9.20;99.90;;;;;;5086759;28;20514;-85
2022/11/24 04:58:52;;;;;;;13.20;3.07;;;9.10;99.90;;;;;;5096161;28;20523;-86
2022/11/24 05:01:19;;;;;;;18.17;4.77;;;9.20;99.90;;;;;;5086999;28;20469;-86
2022/11/24 05:03:46;;;;;;;9.87;3.27;;;9.20;99.90;;;;;;5089216;28;20451;-85
2022/11/24 05:06:13;;;;;;;8.27;2.93;;;9.20;99.90;;;;;;5087243;28;20484;-85
2022/11/24 05:08:39;;;;;;;12.83;3.60;;;9.30;99.90;;;;;;5087806;28;20480;-86
2022/11/24 05:11:07;;;;;;;15.50;2.97;;;9.30;99.90;;;;;;5101927;28;20480;-85
2022/11/24 05:13:34;;;;;;;10.73;2.70;;;9.30;99.90;;;;;;5105523;28;20476;-85
2022/11/24 05:16:06;;;;;;;13.80;4.23;;;9.30;99.90;;;;;;5092706;28;20909;-85
2022/11/24 05:18:33;;;;;;;12.53;2.80;;;9.40;99.90;;;;;;5084175;28;20507;-84
2022/11/24 05:21:00;;;;;;;21.80;3.57;;;9.40;99.90;;;;;;5087399;28;20536;-86
2022/11/24 05:23:27;;;;;;;12.50;3.70;;;9.40;99.90;;;;;;5087152;28;20531;-86
2022/11/24 05:25:54;;;;;;;14.03;4.77;;;9.50;99.90;;;;;;5104377;28;20445;-86
2022/11/24 05:28:21;;;;;;;17.40;3.20;;;9.50;99.90;;;;;;5090971;28;20538;-85
2022/11/24 05:30:47;;;;;;;16.30;4.03;;;9.50;99.90;;;;;;5098221;28;20485;-86
2022/11/24 05:33:17;;;;;;;13.10;3.60;;;9.50;99.90;;;;;;5103040;28;20975;-87
2022/11/24 05:35:45;;;;;;;12.67;3.10;;;9.50;99.90;;;;;;5092448;28;20514;-85
2022/11/24 05:38:11;;;;;;;15.77;4.97;;;9.50;99.90;;;;;;5107003;28;20543;-85
2022/11/24 05:40:39;;;;;;;15.40;3.23;;;9.50;99.90;;;;;;5108550;28;20499;-86
2022/11/24 05:43:09;;;;;;;11.87;3.00;;;9.60;99.90;;;;;;5093287;28;20504;-85
2022/11/24 05:45:36;;;;;;;13.13;3.10;;;9.60;99.90;;;;;;5088066;28;20505;-86
2022/11/24 05:48:10;;;;;;;22.03;4.17;;;9.70;99.90;;;;;;5089610;28;20520;-85
2022/11/24 05:59:00;;;;;;;9.13;3.80;;;9.70;99.90;;;;;;5024882;28;20456;-85
2022/11/24 06:01:27;;;;;;;16.83;3.40;;;9.80;99.90;;;;;;5020162;28;20473;-84
2022/11/24 06:03:54;;;;;;;8.73;2.80;;;9.80;99.90;;;;;;5017772;28;20455;-87
2022/11/24 06:06:20;;;;;;;10.00;3.20;;;9.70;99.90;;;;;;5018110;28;21048;-86
2022/11/24 06:08:52;;;;;;;23.00;3.67;;;9.70;99.90;;;;;;5018531;28;20471;-86
2022/11/24 06:11:21;;;;;;;14.87;4.10;;;9.70;99.90;;;;;;5019060;28;20502;-86
2022/11/24 06:13:48;;;;;;;13.50;3.53;;;9.80;99.90;;;;;;5019897;28;20515;-84
2022/11/24 06:16:15;;;;;;;12.23;3.90;;;9.80;99.90;;;;;;5020036;28;20531;-85
2022/11/24 06:18:42;;;;;;;11.87;3.57;;;9.80;99.90;;;;;;5019721;28;20457;-86
2022/11/24 06:21:08;;;;;;;15.07;3.17;;;9.80;99.90;;;;;;5019286;28;20935;-85
2022/11/24 06:23:35;;;;;;;9.53;2.83;;;9.80;99.90;;;;;;5016521;28;20543;-84
2022/11/24 06:26:04;;;;;;;13.07;3.10;;;9.70;99.90;;;;;;5024715;28;20977;-86
2022/11/24 06:28:30;;;;;;;8.43;3.13;;;9.70;99.90;;;;;;5021237;28;20502;-85
2022/11/24 06:31:01;;;;;;;16.90;3.43;;;9.70;99.90;;;;;;5076100;22;20497;-81
2022/11/24 06:33:32;;;;;;;15.93;3.57;;;9.70;99.90;;;;;;5098273;28;20453;-81
2022/11/24 06:36:03;;;;;;;15.57;3.30;;;9.70;99.90;;;;;;5105724;28;20452;-81
2022/11/24 06:38:31;;;;;;;10.23;2.90;;;9.70;99.90;;;;;;5094313;28;20473;-82
2022/11/24 06:41:05;;;;;;;10.57;2.80;;;9.60;99.90;;;;;;5098727;28;20492;-82
2022/11/24 06:43:32;;;;;;;10.03;3.20;;;9.50;99.90;;;;;;5098830;28;20461;-82
2022/11/24 06:45:59;;;;;;;12.30;3.53;;;9.50;99.90;;;;;;5105586;28;20460;-82
2022/11/24 06:48:27;;;;;;;11.57;2.93;;;9.50;99.90;;;;;;5113623;28;20476;-78
2022/11/24 06:50:58;;;;;;;11.87;3.47;;;9.50;99.90;;;;;;5100022;28;20536;-79
2022/11/24 06:53:24;;;;;;;9.97;3.30;;;9.40;99.90;;;;;;5089893;28;20536;-79
2022/11/24 06:55:52;;;;;;;10.37;2.60;;;9.40;99.90;;;;;;5092706;28;20846;-79
2022/11/24 06:58:20;;;;;;;18.73;4.87;;;9.30;99.90;;;;;;5092034;28;20461;-79
2022/11/24 07:00:47;;;;;;;14.33;2.90;;;9.30;99.90;;;;;;5090975;28;21042;-79
2022/11/24 07:03:16;;;;;;;17.90;3.67;;;9.40;99.90;;;;;;5092676;28;20537;-80
2022/11/24 07:05:43;;;;;;;9.90;3.13;;;9.40;99.90;;;;;;5095295;28;20535;-79
2022/11/24 07:08:10;;;;;;;12.10;2.67;;;9.30;99.90;;;;;;5095490;28;20887;-80
2022/11/24 07:10:37;;;;;;;12.40;2.90;;;9.30;99.90;;;;;;5103760;28;20498;-79
2022/11/24 07:13:06;;;;;;;12.70;3.17;;;9.30;99.90;;;;;;5094902;28;20545;-78
2022/11/24 07:15:35;;;;;;;13.50;4.30;;;9.30;99.90;;;;;;5089365;28;20948;-79
2022/11/24 07:18:02;;;;;;;8.20;2.67;;;9.30;99.90;;;;;;5081132;28;20452;-79
2022/11/24 07:20:28;;;;;;;12.27;3.20;;;9.30;99.90;;;;;;5080388;28;20492;-79
2022/11/24 07:22:56;;;;;;;11.10;2.50;;;9.30;99.90;;;;;;5091318;28;20444;-78
2022/11/24 07:25:23;;;;;;;6.00;2.20;;;9.20;99.90;;;;;;5087191;28;20515;-78
2022/11/24 07:27:55;;;;;;;13.80;2.33;;;9.20;99.90;;;;;;5080929;28;20466;-79
2022/11/24 07:30:21;;;;;;;9.90;2.17;;;9.20;99.90;;;;;;5088252;28;20519;-79
2022/11/24 07:32:50;;;;;;;11.13;3.10;;;9.30;99.90;;;;;;5087207;28;20488;-78
2022/11/24 07:35:17;;;;;;;7.20;2.50;;;9.40;99.90;;;;;;5098549;28;20487;-78
2022/11/24 07:37:44;;;;;;;10.67;2.90;;;9.40;99.90;;;;;;5089545;28;20960;-79
2022/11/24 07:40:12;;;;;;;16.37;3.80;;;9.50;99.90;;;;;;5094001;28;20482;-79
2022/11/24 07:42:38;;;;;;;5.83;1.93;;;9.60;99.90;;;;;;5083633;28;20446;-78
2022/11/24 07:45:06;;;;;;;10.20;2.93;;;9.50;99.90;;;;;;5089693;28;20454;-80
2022/11/24 07:47:33;;;;;;;15.60;2.70;;;9.60;99.90;;;;;;5095687;28;20454;-79
2022/11/24 07:50:01;;;;;;;14.77;4.80;;;9.60;99.90;;;;;;5089554;28;20442;-79
2022/11/24 07:52:28;;;;;;;7.93;2.47;;;9.70;99.90;;;;;;5087386;28;20512;-78
2022/11/24 07:54:55;;;;;;;6.77;2.50;;;9.70;99.90;;;;;;5087735;28;20450;-79
2022/11/24 07:57:23;;;;;;;7.73;2.07;;;9.70;99.90;;;;;;5090355;28;20901;-81
2022/11/24 07:59:50;;;;;;;6.80;2.77;;;9.80;99.90;;;;;;5079602;28;20452;-80
2022/11/24 08:02:17;;;;;;;9.07;2.07;;;9.70;99.90;;;;;;5086261;28;20551;-79
2022/11/24 08:04:44;;;;;;;4.97;1.80;;;9.70;99.90;;;;;;5081080;28;20445;-79
2022/11/24 08:07:12;;;;;;;9.43;2.60;;;9.70;99.90;;;;;;5084054;28;20476;-79
2022/11/24 08:09:39;;;;;;;5.27;1.80;;;9.70;99.90;;;;;;5080375;28;20448;-79
2022/11/24 08:12:06;;;;;;;2.73;1.23;;;9.70;99.90;;;;;;5094366;28;20496;-79
2022/11/24 08:14:33;;;;;;;3.60;1.20;;;9.60;99.90;;;;;;5094434;28;20453;-80
2022/11/24 08:17:00;;;;;;;5.60;1.40;;;9.50;99.90;;;;;;5094627;28;20458;-79
2022/11/24 08:19:26;;;;;;;6.37;1.87;;;9.50;99.90;;;;;;5079267;28;20456;-80
2022/11/24 08:21:53;;;;;;;6.20;1.47;;;9.50;99.90;;;;;;5075114;28;20473;-78
2022/11/24 08:24:21;;;;;;;4.57;1.50;;;9.60;99.90;;;;;;5075600;28;20453;-79
2022/11/24 08:26:48;;;;;;;7.17;1.60;;;9.60;99.90;;;;;;5075969;28;20452;-79
2022/11/24 08:29:15;;;;;;;5.73;1.30;;;9.60;99.90;;;;;;5086011;28;20453;-80
2022/11/24 08:31:42;;;;;;;4.50;1.47;;;9.70;99.90;;;;;;5078666;28;20491;-80
2022/11/24 08:34:10;;;;;;;4.10;1.20;;;9.60;99.90;;;;;;5083965;28;21044;-79
2022/11/24 08:36:37;;;;;;;5.13;1.47;;;9.70;99.90;;;;;;5078216;28;20449;-79
2022/11/24 08:39:03;;;;;;;5.33;1.27;;;9.70;99.90;;;;;;5075741;28;20506;-80
2022/11/24 08:41:32;;;;;;;5.40;1.30;;;9.80;99.90;;;;;;5081024;28;20532;-80
2022/11/24 08:43:59;;;;;;;6.23;1.40;;;9.80;99.90;;;;;;5083014;28;20456;-80
2022/11/24 08:46:25;;;;;;;8.30;2.93;;;9.80;99.90;;;;;;5099709;28;20449;-80
2022/11/24 08:48:54;;;;;;;4.57;1.60;;;9.80;99.90;;;;;;5098680;28;20451;-81
2022/11/24 08:51:23;;;;;;;2.60;1.40;;;9.90;99.90;;;;;;5082362;28;20556;-79
2022/11/24 08:53:53;;;;;;;5.07;1.10;;;10.00;99.90;;;;;;5078491;28;20833;-80
2022/11/24 08:56:20;;;;;;;5.77;1.60;;;10.10;99.90;;;;;;5080507;28;20492;-79
2022/11/24 08:58:48;;;;;;;3.30;1.00;;;10.00;99.90;;;;;;5091634;28;20476;-77
2022/11/24 09:01:16;;;;;;;3.83;1.10;;;10.00;99.90;;;;;;5081755;28;20473;-79
2022/11/24 09:03:45;;;;;;;5.50;1.40;;;10.00;99.90;;;;;;5097160;28;20477;-79
2022/11/24 09:06:11;;;;;;;3.40;1.30;;;10.00;99.90;;;;;;5098585;28;20454;-80
2022/11/24 09:08:38;;;;;;;4.50;1.40;;;10.00;99.90;;;;;;5099033;28;20610;-79
2022/11/24 09:11:07;;;;;;;6.43;1.30;;;9.90;99.90;;;;;;5099405;28;20473;-78
2022/11/24 09:13:34;;;;;;;4.13;1.00;;;9.80;99.90;;;;;;5076847;28;20491;-78
2022/11/24 09:16:05;;;;;;;6.43;1.70;;;9.90;99.90;;;;;;5085165;28;20538;-80
2022/11/24 09:18:33;;;;;;;5.73;1.37;;;10.00;99.90;;;;;;5085222;28;20449;-80
2022/11/24 09:21:07;;;;;;;4.57;2.30;;;10.10;99.90;;;;;;5091377;28;20835;-77
2022/11/24 09:23:34;;;;;;;6.77;1.50;;;10.30;99.90;;;;;;5097200;28;20445;-77
2022/11/24 09:26:04;;;;;;;5.50;1.60;;;10.40;99.90;;;;;;5086033;28;20462;-80
2022/11/24 09:28:31;;;;;;;7.60;1.60;;;10.60;99.90;;;;;;5088579;28;20476;-79
2022/11/24 09:31:01;;;;;;;6.90;2.60;;;10.40;99.90;;;;;;5081196;28;20572;-80
2022/11/24 09:33:30;;;;;;;5.67;1.80;;;10.50;99.90;;;;;;5083866;28;20484;-80
2022/11/24 09:35:57;;;;;;;5.90;1.50;;;10.50;99.90;;;;;;5079539;28;20492;-79
2022/11/24 09:38:24;;;;;;;6.87;1.97;;;10.40;99.90;;;;;;5089770;28;20452;-80
2022/11/24 09:40:52;;;;;;;3.73;1.60;;;10.40;99.90;;;;;;5099645;28;20472;-78
2022/11/24 09:43:26;;;;;;;5.40;1.70;;;10.40;99.90;;;;;;5088458;28;20486;-79
2022/11/24 09:46:01;;;;;;;5.50;1.33;;;10.40;99.90;;;;;;5081712;28;20540;-79
2022/11/24 09:48:33;;;;;;;7.63;1.93;;;10.40;99.90;;;;;;5090562;28;20452;-78
2022/11/24 09:51:03;;;;;;;6.13;1.80;;;10.40;99.90;;;;;;5085080;28;20473;-79
2022/11/24 09:53:37;;;;;;;5.93;1.63;;;10.50;99.90;;;;;;5083404;28;20592;-81
2022/11/24 09:56:15;;;;;;;5.63;1.90;;;10.50;99.90;;;;;;5087580;28;20533;-80
2022/11/24 09:58:45;;;;;;;4.60;1.87;;;10.40;99.90;;;;;;5090540;28;20475;-79
2022/11/24 10:01:17;;;;;;;5.47;2.00;;;10.40;99.90;;;;;;5097976;28;21305;-78
2022/11/24 10:03:47;;;;;;;8.00;1.93;;;10.40;99.90;;;;;;5092357;28;20441;-80
2022/11/24 10:06:23;;;;;;;7.50;2.90;;;10.40;99.90;;;;;;5096258;28;20476;-78
2022/11/24 10:09:18;;;;;;;14.80;2.40;;;10.40;99.90;;;;;;5096536;28;20460;-80
2022/11/24 10:11:52;;;;;;;5.23;2.30;;;10.40;99.90;;;;;;5092296;28;20532;-77
2022/11/24 10:14:44;;;;;;;7.87;3.00;;;10.30;99.90;;;;;;5078557;28;20457;-80
2022/11/24 10:17:26;;;;;;;7.50;2.87;;;10.30;99.90;;;;;;5085310;28;20492;-79
2022/11/24 10:20:02;;;;;;;9.63;2.77;;;10.30;99.90;;;;;;5077416;28;20474;-79
2022/11/24 10:22:42;;;;;;;6.20;2.23;;;10.30;99.90;;;;;;5084704;28;20803;-80
2022/11/24 10:25:18;;;;;;;4.60;2.30;;;10.30;99.90;;;;;;5084497;28;20522;-79
2022/11/24 10:27:49;;;;;;;4.27;1.70;;;10.30;99.90;;;;;;5090486;28;20961;-79
2022/11/24 10:30:17;;;;;;;6.07;2.10;;;10.30;99.90;;;;;;5084260;28;20475;-81
2022/11/24 10:32:47;;;;;;;5.27;2.77;;;10.40;99.90;;;;;;5086772;28;20477;-80
2022/11/24 10:35:18;;;;;;;14.43;2.83;;;10.40;99.90;;;;;;5091524;28;21017;-81
2022/11/24 10:38:03;;;;;;;6.97;2.10;;;10.40;99.90;;;;;;5091783;28;20451;-79
2022/11/24 10:40:36;;;;;;;11.60;3.00;;;10.50;99.90;;;;;;5097093;28;20834;-80
2022/11/24 10:43:04;;;;;;;7.20;2.20;;;10.40;99.90;;;;;;5096362;28;20545;-80
2022/11/24 10:45:31;;;;;;;7.07;2.10;;;10.40;99.90;;;;;;5089226;28;20459;-80
2022/11/24 10:47:58;;;;;;;9.30;2.63;;;10.40;99.90;;;;;;5092986;28;20534;-79
2022/11/24 10:50:31;;;;;;;6.13;2.63;;;10.40;99.90;;;;;;5097377;28;20480;-81
2022/11/24 10:53:06;;;;;;;11.60;2.53;;;10.60;99.90;;;;;;5095830;28;20572;-81
2022/11/24 10:55:57;;;;;;;10.53;4.67;;;10.80;99.90;;;;;;5097876;28;21046;-80
2022/11/24 10:58:26;;;;;;;8.83;2.70;;;11.20;99.90;;;;;;5077355;28;20829;-80
2022/11/24 11:00:54;;;;;;;9.53;3.80;;;11.70;99.90;;;;;;5084907;28;20464;-81
2022/11/24 11:03:22;;;;;;;4.00;2.30;;;12.40;99.90;;;;;;5093837;28;20453;-80
2022/11/24 11:05:52;;;;;;;7.37;2.77;;;12.40;99.90;;;;;;5075473;28;20542;-82
2022/11/24 11:08:25;;;;;;;8.00;2.20;;;12.30;99.90;;;;;;5091934;28;20443;-79
2022/11/24 11:11:13;;;;;;;6.87;2.57;;;12.40;99.90;;;;;;5091809;28;20523;-81
2022/11/24 11:13:50;;;;;;;9.20;2.40;;;12.20;99.90;;;;;;5080900;28;20479;-80
2022/11/24 11:16:29;;;;;;;8.67;2.40;;;11.80;99.90;;;;;;5078999;28;20465;-81
2022/11/24 11:18:56;;;;;;;8.87;3.27;;;11.70;99.90;;;;;;5079774;28;20516;-81
2022/11/24 11:21:32;;;;;;;6.43;2.10;;;11.50;99.90;;;;;;5093599;28;20545;-78
2022/11/24 11:24:00;;;;;;;7.10;2.23;;;11.60;99.90;;;;;;5092127;28;20529;-78
2022/11/24 11:26:36;;;;;;;12.27;3.00;;;11.90;99.90;;;;;;5082903;28;20454;-79
2022/11/24 11:29:15;;;;;;;12.77;2.83;;;12.10;99.90;;;;;;5076799;28;20538;-81
2022/11/24 11:31:42;;;;;;;15.83;3.20;;;13.50;99.90;;;;;;5076656;28;21000;-80
2022/11/24 11:34:19;;;;;;;11.10;2.30;;;14.60;99.90;;;;;;5075116;28;20485;-80
2022/11/24 11:36:49;;;;;;;8.00;2.60;;;15.00;99.90;;;;;;5083871;28;20534;-80
2022/11/24 11:39:23;;;;;;;14.03;2.80;;;15.00;99.90;;;;;;5095693;28;20449;-81
2022/11/24 11:41:53;;;;;;;8.93;2.87;;;14.70;99.90;;;;;;5087817;28;20472;-80
2022/11/24 11:44:31;;;;;;;6.70;2.87;;;14.20;99.90;;;;;;5076377;28;20595;-81
2022/11/24 11:47:00;;;;;;;11.23;2.83;;;15.00;99.90;;;;;;5078496;28;20905;-81
2022/11/24 11:49:27;;;;;;;9.60;2.63;;;15.20;99.90;;;;;;5077356;28;20537;-82
2022/11/24 11:52:13;;;;;;;10.53;2.30;;;14.40;99.90;;;;;;5084448;28;20473;-80
2022/11/24 11:55:02;;;;;;;8.30;2.57;;;14.00;99.90;;;;;;5096742;28;20436;-80
2022/11/24 11:57:44;;;;;;;8.33;2.50;;;13.60;99.90;;;;;;5096294;28;20460;-82
2022/11/24 12:00:14;;;;;;;7.83;2.40;;;13.40;99.90;;;;;;5093144;28;20456;-79
2022/11/24 12:03:06;;;;;;;14.77;2.80;;;13.30;99.90;;;;;;5093683;28;20993;-79
2022/11/24 12:05:47;;;;;;;6.77;2.50;;;13.30;99.90;;;;;;5072421;28;20539;-80
2022/11/24 12:08:30;;;;;;;9.40;2.20;;;13.20;99.90;;;;;;5088518;28;20453;-80
2022/11/24 12:11:09;;;;;;;8.60;3.17;;;13.30;99.90;;;;;;5097481;28;20503;-79
2022/11/24 12:14:01;;;;;;;9.73;2.97;;;13.10;99.90;;;;;;5097357;28;20556;-81
2022/11/24 12:16:39;;;;;;;14.93;3.07;;;12.70;99.90;;;;;;5081765;28;20477;-81
2022/11/24 12:19:20;;;;;;;8.10;2.30;;;12.50;99.90;;;;;;5086806;28;20456;-82
2022/11/24 12:21:58;;;;;;;7.60;2.10;;;12.60;99.90;;;;;;5100077;28;20553;-79
2022/11/24 12:24:40;;;;;;;12.90;2.90;;;12.60;99.90;;;;;;5087534;28;20471;-80
2022/11/24 12:27:16;;;;;;;9.67;3.27;;;13.00;99.90;;;;;;5091568;28;20449;-80
2022/11/24 12:29:57;;;;;;;7.70;2.33;;;13.10;99.90;;;;;;5091077;28;20538;-77
2022/11/24 12:32:40;;;;;;;7.03;1.90;;;13.20;99.90;;;;;;5087622;22;20948;-82
2022/11/24 12:35:19;;;;;;;7.97;2.47;;;13.30;99.90;;;;;;5058044;28;20473;-81
2022/11/24 12:37:57;;;;;;;10.40;2.90;;;13.20;99.90;;;;;;5039741;28;20465;-81
2022/11/24 12:40:44;;;;;;;11.93;2.70;;;13.40;99.90;;;;;;5040206;28;20458;-82
2022/11/24 12:43:19;;;;;;;11.70;2.23;;;13.40;99.90;;;;;;5000287;28;20499;-83
2022/11/24 12:45:54;;;;;;;9.30;2.07;;;13.10;99.90;;;;;;5014620;28;20460;-79
2022/11/24 12:48:34;;;;;;;8.53;2.90;;;13.20;99.90;;;;;;5030837;28;20527;-81
2022/11/24 12:51:03;;;;;;;9.20;2.70;;;13.00;99.90;;;;;;5015704;28;20449;-81
2022/11/24 12:53:33;;;;;;;9.30;2.63;;;12.80;99.90;;;;;;5019920;28;20577;-81
2022/11/24 12:56:07;;;;;;;6.97;1.90;;;12.60;99.90;;;;;;5016964;28;20458;-83
2022/11/24 12:58:40;;;;;;;14.07;3.10;;;12.50;99.90;;;;;;5018669;28;20448;-81
2022/11/24 13:01:15;;;;;;;8.03;2.77;;;12.30;99.90;;;;;;5018706;28;21041;-81
2022/11/24 13:03:58;;;;;;;12.00;2.80;;;12.30;99.90;;;;;;5019572;28;20495;-82
2022/11/24 13:06:35;;;;;;;17.47;3.17;;;12.30;99.90;;;;;;5020540;28;20516;-83
2022/11/24 13:09:09;;;;;;;10.80;2.13;;;12.30;99.90;;;;;;5027581;28;20536;-82
2022/11/24 13:11:40;;;;;;;11.23;3.27;;;12.20;99.90;;;;;;5024519;28;20473;-81
2022/11/24 13:14:12;;;;;;;11.03;2.27;;;12.20;99.90;;;;;;5022477;28;20584;-83